createdAt,value
2019-03-30T00:00:03.367Z,5.79
2019-03-30T00:01:03.369Z,5.81
2019-03-30T00:02:03.376Z,5.75
2019-03-30T00:03:03.329Z,5.72
2019-03-30T00:04:03.321Z,5.86
2019-03-30T00:05:03.322Z,5.85
2019-03-30T00:06:03.325Z,5.79
2019-03-30T00:07:03.308Z,5.89
2019-03-30T00:08:03.272Z,5.85
2019-03-30T00:09:03.266Z,5.83
2019-03-30T00:10:03.250Z,5.82
2019-03-30T00:11:03.262Z,5.86
2019-03-30T00:12:03.384Z,5.9
2019-03-30T00:13:03.224Z,5.75
2019-03-30T00:14:03.175Z,5.79
2019-03-30T00:15:03.196Z,5.74
2019-03-30T00:16:03.152Z,5.75
2019-03-30T00:17:03.159Z,5.76
2019-03-30T00:18:03.122Z,5.68
2019-03-30T00:19:03.144Z,5.76
2019-03-30T00:20:03.127Z,5.72
2019-03-30T00:21:03.097Z,5.76
2019-03-30T00:22:03.070Z,5.63
2019-03-30T00:23:03.054Z,5.72
2019-03-30T00:24:03.067Z,5.64
2019-03-30T00:25:03.048Z,5.64
2019-03-30T00:26:03.018Z,5.65
2019-03-30T00:27:03.034Z,5.63
2019-03-30T00:28:02.994Z,5.72
2019-03-30T00:29:03.012Z,5.61
2019-03-30T00:30:02.961Z,5.65
2019-03-30T00:31:02.990Z,5.65
2019-03-30T00:32:02.935Z,5.61
2019-03-30T00:33:02.941Z,5.56
2019-03-30T00:34:02.907Z,5.51
2019-03-30T00:35:02.924Z,5.57
2019-03-30T00:36:02.907Z,5.54
2019-03-30T00:37:02.885Z,5.56
2019-03-30T00:38:02.850Z,5.57
2019-03-30T00:39:02.837Z,5.63
2019-03-30T00:40:02.922Z,5.58
2019-03-30T00:41:02.835Z,5.64
2019-03-30T00:42:02.831Z,5.48
2019-03-30T00:43:02.782Z,5.56
2019-03-30T00:44:02.798Z,5.56
2019-03-30T00:45:02.758Z,5.56
2019-03-30T00:46:02.795Z,5.45
2019-03-30T00:47:02.731Z,5.57
2019-03-30T00:48:02.748Z,5.56
2019-03-30T00:49:02.715Z,5.56
2019-03-30T00:50:02.721Z,5.51
2019-03-30T00:51:02.675Z,5.46
2019-03-30T00:52:02.691Z,5.4
2019-03-30T00:53:02.666Z,5.46
2019-03-30T00:54:02.633Z,5.42
2019-03-30T00:55:02.773Z,5.39
2019-03-30T00:56:02.631Z,5.31
2019-03-30T00:57:02.614Z,5.38
2019-03-30T00:58:02.611Z,5.33
2019-03-30T00:59:02.568Z,5.35
2019-03-30T01:00:02.774Z,5.33
2019-03-30T01:01:02.537Z,5.3
2019-03-30T01:02:02.584Z,5.31
2019-03-30T01:03:02.509Z,5.33
2019-03-30T01:04:02.531Z,5.21
2019-03-30T01:05:02.254Z,5.24
2019-03-30T01:06:03.170Z,5.28
2019-03-30T01:07:02.459Z,5.25
2019-03-30T01:08:02.446Z,5.27
2019-03-30T01:09:02.648Z,5.28
2019-03-30T01:10:02.635Z,5.27
2019-03-30T01:11:02.433Z,5.13
2019-03-30T01:12:02.390Z,5.18
2019-03-30T01:13:02.390Z,5.21
2019-03-30T01:14:02.361Z,5.1
2019-03-30T01:15:02.376Z,5.13
2019-03-30T01:16:02.336Z,5.2
2019-03-30T01:17:02.334Z,5.1
2019-03-30T01:18:02.352Z,5.18
2019-03-30T01:19:02.295Z,5.13
2019-03-30T01:20:08.129Z,5.13
2019-03-30T01:21:02.276Z,5.12
2019-03-30T01:22:02.286Z,5.06
2019-03-30T01:23:02.242Z,5.13
2019-03-30T01:24:02.229Z,5.1
2019-03-30T01:25:02.219Z,5.1
2019-03-30T01:26:02.230Z,5.13
2019-03-30T01:27:02.210Z,5.09
2019-03-30T01:28:02.170Z,5.1
2019-03-30T01:35:02.176Z,5.09
2019-03-30T01:36:02.087Z,5.02
2019-03-30T01:44:01.954Z,4.99
2019-03-30T01:45:01.949Z,5.02
2019-03-30T02:02:04.248Z,4.86
2019-03-30T02:03:01.683Z,4.82
2019-03-30T02:04:01.700Z,4.8
2019-03-30T02:05:01.684Z,4.78
2019-03-30T02:06:01.668Z,4.77
2019-03-30T02:07:01.632Z,4.78
2019-03-30T02:08:01.610Z,4.8
2019-03-30T02:09:01.633Z,4.82
2019-03-30T02:10:01.688Z,4.84
2019-03-30T02:11:01.571Z,4.8
2019-03-30T02:12:01.593Z,4.88
2019-03-30T02:13:01.551Z,4.8
2019-03-30T02:14:01.557Z,4.86
2019-03-30T02:15:01.528Z,4.78
2019-03-30T02:16:01.529Z,4.77
2019-03-30T02:17:01.482Z,4.7
2019-03-30T02:18:01.492Z,4.69
2019-03-30T02:19:01.454Z,4.75
2019-03-30T02:20:01.477Z,4.72
2019-03-30T02:21:01.452Z,4.69
2019-03-30T02:22:01.457Z,4.67
2019-03-30T02:23:01.400Z,4.67
2019-03-30T02:24:01.383Z,4.67
2019-03-30T02:25:01.401Z,4.66
2019-03-30T02:26:01.372Z,4.67
2019-03-30T02:27:01.384Z,4.66
2019-03-30T02:28:01.329Z,4.7
2019-03-30T02:29:01.343Z,4.67
2019-03-30T02:30:01.337Z,4.6
2019-03-30T02:31:01.332Z,4.75
2019-03-30T02:32:01.288Z,4.59
2019-03-30T02:33:01.296Z,4.67
2019-03-30T02:34:01.266Z,4.67
2019-03-30T02:35:01.278Z,4.72
2019-03-30T02:36:01.218Z,4.6
2019-03-30T02:37:01.228Z,4.66
2019-03-30T02:38:01.209Z,4.73
2019-03-30T02:39:01.178Z,4.63
2019-03-30T02:40:00.916Z,4.7
2019-03-30T02:41:01.235Z,4.63
2019-03-30T02:42:01.155Z,4.65
2019-03-30T02:43:01.156Z,4.65
2019-03-30T02:44:01.113Z,4.65
2019-03-30T02:45:01.120Z,4.62
2019-03-30T02:46:01.106Z,4.63
2019-03-30T02:47:01.101Z,4.66
2019-03-30T02:48:01.071Z,4.63
2019-03-30T02:49:01.071Z,4.69
2019-03-30T02:50:01.036Z,4.6
2019-03-30T02:51:01.040Z,4.65
2019-03-30T02:52:01.007Z,4.6
2019-03-30T02:53:01.009Z,4.69
2019-03-30T02:54:01.000Z,4.59
2019-03-30T02:55:00.981Z,4.62
2019-03-30T02:56:00.968Z,4.59
2019-03-30T02:57:00.931Z,4.58
2019-03-30T02:58:00.918Z,4.52
2019-03-30T02:59:00.895Z,4.58
2019-03-30T03:00:00.907Z,4.58
2019-03-30T03:01:00.873Z,4.51
2019-03-30T03:02:00.881Z,4.51
2019-03-30T03:03:00.893Z,4.51
2019-03-30T03:04:00.820Z,4.5
2019-03-30T03:05:00.839Z,4.47
2019-03-30T03:06:00.817Z,4.54
2019-03-30T03:07:00.804Z,4.52
2019-03-30T03:08:00.760Z,4.5
2019-03-30T03:09:00.754Z,4.5
2019-03-30T03:10:00.750Z,4.47
2019-03-30T03:11:00.760Z,4.36
2019-03-30T03:12:00.740Z,4.34
2019-03-30T03:13:00.692Z,4.41
2019-03-30T03:14:00.467Z,4.44
2019-03-30T03:15:00.690Z,4.37
2019-03-30T03:16:00.680Z,4.44
2019-03-30T03:17:00.679Z,4.4
2019-03-30T03:18:00.719Z,4.33
2019-03-30T03:19:00.601Z,4.29
2019-03-30T03:20:00.651Z,4.26
2019-03-30T03:21:12.886Z,4.3
2019-03-30T03:22:00.588Z,4.26
2019-03-30T03:23:00.554Z,4.27
2019-03-30T03:24:00.568Z,4.32
2019-03-30T03:25:00.638Z,4.3
2019-03-30T03:26:00.519Z,4.33
2019-03-30T03:27:00.523Z,4.26
2019-03-30T03:28:00.507Z,4.23
2019-03-30T03:29:00.499Z,4.24
2019-03-30T03:30:00.807Z,4.27
2019-03-30T03:31:00.482Z,4.26
2019-03-30T03:32:00.496Z,4.32
2019-03-30T03:33:00.539Z,4.26
2019-03-30T03:34:00.434Z,4.22
2019-03-30T03:35:00.321Z,4.27
2019-03-30T03:36:00.393Z,4.33
2019-03-30T03:37:00.356Z,4.34
2019-03-30T03:38:00.358Z,4.33
2019-03-30T03:39:00.365Z,4.37
2019-03-30T03:40:00.578Z,4.41
2019-03-30T03:41:00.357Z,4.4
2019-03-30T03:42:00.299Z,4.44
2019-03-30T03:43:00.265Z,4.37
2019-03-30T03:44:00.238Z,4.41
2019-03-30T03:45:00.641Z,4.41
2019-03-30T03:46:00.246Z,4.4
2019-03-30T03:47:00.230Z,4.3
2019-03-30T03:48:00.200Z,4.29
2019-03-30T03:49:00.197Z,4.33
2019-03-30T03:50:00.401Z,4.27
2019-03-30T03:51:00.170Z,4.27
2019-03-30T03:52:00.141Z,4.26
2019-03-30T03:53:00.142Z,4.29
2019-03-30T03:54:00.174Z,4.33
2019-03-30T03:55:00.153Z,4.24
2019-03-30T03:56:00.132Z,4.26
2019-03-30T03:57:00.085Z,4.23
2019-03-30T03:58:00.058Z,4.24
2019-03-30T03:59:00.037Z,4.24
2019-03-30T04:00:00.012Z,4.26
2019-03-30T04:01:00.042Z,4.29
2019-03-30T04:02:00.045Z,4.29
2019-03-30T04:03:00.020Z,4.27
2019-03-30T04:03:59.949Z,4.27
2019-03-30T04:04:59.721Z,4.26
2019-03-30T04:05:59.963Z,4.22
2019-03-30T04:06:59.961Z,4.27
2019-03-30T04:07:59.889Z,4.24
2019-03-30T04:08:59.931Z,4.32
2019-03-30T04:09:59.895Z,4.29
2019-03-30T04:10:59.896Z,4.32
2019-03-30T04:11:59.916Z,4.23
2019-03-30T04:12:59.826Z,4.34
2019-03-30T04:13:59.821Z,4.26
2019-03-30T04:14:59.839Z,4.36
2019-03-30T04:15:59.821Z,4.37
2019-03-30T04:16:59.772Z,4.29
2019-03-30T04:17:59.767Z,4.3
2019-03-30T04:18:59.774Z,4.33
2019-03-30T04:19:59.731Z,4.3
2019-03-30T04:20:59.767Z,4.3
2019-03-30T04:21:59.698Z,4.34
2019-03-30T04:22:59.714Z,4.3
2019-03-30T04:23:59.686Z,4.34
2019-03-30T04:24:59.678Z,4.34
2019-03-30T04:25:59.650Z,4.33
2019-03-30T04:26:59.662Z,4.34
2019-03-30T04:27:59.603Z,4.33
2019-03-30T04:28:59.590Z,4.41
2019-03-30T04:29:59.609Z,4.36
2019-03-30T04:30:59.670Z,4.44
2019-03-30T04:31:59.610Z,4.41
2019-03-30T04:32:59.548Z,4.44
2019-03-30T04:33:59.544Z,4.41
2019-03-30T04:34:59.504Z,4.37
2019-03-30T04:35:59.521Z,4.44
2019-03-30T04:36:59.478Z,4.42
2019-03-30T04:37:59.493Z,4.41
2019-03-30T04:38:59.457Z,4.36
2019-03-30T04:39:59.457Z,4.44
2019-03-30T04:40:59.417Z,4.4
2019-03-30T04:41:59.426Z,4.4
2019-03-30T04:42:59.389Z,4.36
2019-03-30T04:43:59.399Z,4.34
2019-03-30T04:44:59.374Z,4.37
2019-03-30T04:45:59.354Z,4.32
2019-03-30T04:46:59.357Z,4.33
2019-03-30T04:47:59.359Z,4.3
2019-03-30T04:48:59.466Z,4.29
2019-03-30T04:49:59.295Z,4.37
2019-03-30T04:50:59.277Z,4.33
2019-03-30T04:52:02.671Z,4.32
2019-03-30T04:52:59.240Z,4.3
2019-03-30T04:53:59.253Z,4.29
2019-03-30T04:54:59.209Z,4.34
2019-03-30T04:55:59.223Z,4.3
2019-03-30T04:56:59.180Z,4.33
2019-03-30T04:58:02.731Z,4.4
2019-03-30T04:58:59.151Z,4.33
2019-03-30T04:59:59.166Z,4.42
2019-03-30T05:00:59.157Z,4.37
2019-03-30T05:01:59.127Z,4.4
2019-03-30T05:02:59.097Z,4.4
2019-03-30T05:03:59.076Z,4.36
2019-03-30T05:04:59.089Z,4.37
2019-03-30T05:05:59.068Z,4.47
2019-03-30T05:06:59.089Z,4.5
2019-03-30T05:07:59.019Z,4.5
2019-03-30T05:08:59.041Z,4.55
2019-03-30T05:09:59.012Z,4.58
2019-03-30T05:10:58.974Z,4.63
2019-03-30T05:11:58.998Z,4.73
2019-03-30T05:12:58.982Z,4.69
2019-03-30T05:13:59.252Z,4.69
2019-03-30T05:14:58.922Z,4.65
2019-03-30T05:15:58.940Z,4.73
2019-03-30T05:16:58.918Z,4.84
2019-03-30T05:17:58.904Z,4.88
2019-03-30T05:18:58.862Z,4.96
2019-03-30T05:19:58.846Z,4.92
2019-03-30T05:20:58.863Z,4.96
2019-03-30T05:22:16.556Z,5.06
2019-03-30T05:22:58.567Z,5.15
2019-03-30T05:23:58.575Z,5.2
2019-03-30T05:24:58.825Z,5.22
2019-03-30T05:25:58.798Z,5.28
2019-03-30T05:26:58.750Z,5.42
2019-03-30T05:27:58.772Z,5.35
2019-03-30T05:28:58.720Z,5.46
2019-03-30T05:29:58.732Z,5.64
2019-03-30T05:30:58.698Z,5.65
2019-03-30T05:31:58.724Z,5.79
2019-03-30T05:33:10.457Z,5.86
2019-03-30T05:33:58.679Z,6.04
2019-03-30T05:34:58.656Z,6.18
2019-03-30T05:35:58.665Z,6.27
2019-03-30T05:36:58.620Z,6.41
2019-03-30T05:38:01.282Z,6.58
2019-03-30T05:38:58.353Z,6.71
2019-03-30T05:39:58.611Z,6.81
2019-03-30T05:40:58.574Z,6.98
2019-03-30T05:41:58.585Z,7.12
2019-03-30T05:42:58.544Z,7.21
2019-03-30T05:43:58.563Z,7.27
2019-03-30T05:45:00.442Z,7.5
2019-03-30T05:45:58.527Z,7.5
2019-03-30T05:46:58.498Z,7.6
2019-03-30T05:47:58.522Z,7.82
2019-03-30T05:48:58.501Z,7.87
2019-03-30T05:49:58.481Z,7.98
2019-03-30T05:50:58.461Z,8.01
2019-03-30T05:51:58.445Z,8.28
2019-03-30T05:52:58.461Z,8.34
2019-03-30T05:53:58.436Z,8.48
2019-03-30T05:54:58.444Z,8.66
2019-03-30T05:55:58.402Z,8.74
2019-03-30T05:56:58.417Z,8.86
2019-03-30T05:57:58.376Z,9.1
2019-03-30T05:58:58.397Z,9.29
2019-03-30T06:00:00.791Z,9.36
2019-03-30T06:00:58.385Z,9.53
2019-03-30T06:01:58.357Z,9.64
2019-03-30T06:02:58.331Z,9.75
2019-03-30T06:03:58.357Z,9.83
2019-03-30T06:04:58.630Z,10.02
2019-03-30T06:05:58.315Z,10.09
2019-03-30T06:06:58.290Z,10.32
2019-03-30T06:07:58.291Z,10.33
2019-03-30T06:08:58.318Z,10.51
2019-03-30T06:09:58.284Z,10.68
2019-03-30T06:10:58.291Z,10.7
2019-03-30T06:11:58.250Z,10.96
2019-03-30T06:12:58.275Z,11.04
2019-03-30T06:13:58.241Z,11.18
2019-03-30T06:14:58.264Z,11.29
2019-03-30T06:15:58.214Z,11.47
2019-03-30T06:16:58.240Z,11.55
2019-03-30T06:17:57.975Z,11.79
2019-03-30T06:18:58.233Z,11.99
2019-03-30T06:19:58.183Z,12.07
2019-03-30T06:20:58.187Z,12.27
2019-03-30T06:21:58.186Z,12.47
2019-03-30T06:22:58.201Z,12.62
2019-03-30T06:23:58.192Z,12.75
2019-03-30T06:24:58.156Z,12.85
2019-03-30T06:25:58.162Z,12.97
2019-03-30T06:26:58.175Z,13.22
2019-03-30T06:27:58.134Z,13.29
2019-03-30T06:28:58.154Z,13.44
2019-03-30T06:29:58.118Z,13.6
2019-03-30T06:30:58.152Z,13.79
2019-03-30T06:31:58.112Z,14.09
2019-03-30T06:32:58.154Z,14.25
2019-03-30T06:33:58.116Z,14.35
2019-03-30T06:34:58.127Z,14.6
2019-03-30T06:35:58.099Z,14.81
2019-03-30T06:36:58.086Z,14.96
2019-03-30T06:37:58.108Z,15.17
2019-03-30T06:38:58.115Z,15.23
2019-03-30T06:39:58.109Z,15.35
2019-03-30T06:40:58.073Z,15.36
2019-03-30T06:41:58.078Z,15.46
2019-03-30T06:42:58.068Z,15.56
2019-03-30T06:43:58.089Z,15.56
2019-03-30T06:44:58.060Z,15.67
2019-03-30T06:45:58.082Z,15.76
2019-03-30T06:46:58.047Z,15.78
2019-03-30T06:47:58.079Z,15.9
2019-03-30T06:48:57.802Z,15.97
2019-03-30T06:49:58.056Z,16.14
2019-03-30T06:50:58.038Z,16.27
2019-03-30T06:51:58.065Z,16.45
2019-03-30T06:53:03.180Z,16.56
2019-03-30T06:53:58.042Z,16.7
2019-03-30T06:54:58.054Z,16.78
2019-03-30T06:55:58.069Z,16.91
2019-03-30T06:56:58.022Z,16.91
2019-03-30T06:57:58.119Z,16.96
2019-03-30T06:58:58.021Z,17.01
2019-03-30T06:59:58.042Z,17.03
2019-03-30T07:00:58.017Z,17.12
2019-03-30T07:01:58.039Z,17.07
2019-03-30T07:02:58.006Z,17.07
2019-03-30T07:03:58.037Z,17.07
2019-03-30T07:04:58.005Z,17.18
2019-03-30T07:05:58.014Z,17.11
2019-03-30T07:06:58.027Z,17.22
2019-03-30T07:07:57.995Z,17.3
2019-03-30T07:08:57.998Z,17.4
2019-03-30T07:09:58.005Z,17.4
2019-03-30T07:10:58.021Z,17.54
2019-03-30T07:11:58.021Z,17.59
2019-03-30T07:12:57.993Z,17.72
2019-03-30T07:13:58.001Z,17.86
2019-03-30T07:14:57.995Z,17.86
2019-03-30T07:15:58.021Z,18.02
2019-03-30T07:17:01.459Z,18.17
2019-03-30T07:17:57.995Z,18.3
2019-03-30T07:18:58.016Z,18.3
2019-03-30T07:19:57.987Z,18.54
2019-03-30T07:20:58.015Z,18.63
2019-03-30T07:21:58.000Z,18.7
2019-03-30T07:23:10.966Z,18.82
2019-03-30T07:23:57.980Z,18.94
2019-03-30T07:24:58.054Z,19.07
2019-03-30T07:25:57.995Z,19.19
2019-03-30T07:26:58.015Z,19.37
2019-03-30T07:27:58.028Z,19.4
2019-03-30T07:28:57.992Z,19.63
2019-03-30T07:29:57.998Z,19.74
2019-03-30T07:30:57.986Z,19.87
2019-03-30T07:31:58.025Z,20.02
2019-03-30T07:32:58.003Z,20.24
2019-03-30T07:33:58.029Z,20.28
2019-03-30T07:34:57.997Z,20.29
2019-03-30T07:35:58.036Z,20.36
2019-03-30T07:36:58.004Z,20.54
2019-03-30T07:37:58.024Z,20.52
2019-03-30T07:38:58.008Z,20.5
2019-03-30T07:39:58.045Z,20.54
2019-03-30T07:40:58.049Z,20.51
2019-03-30T07:41:58.043Z,20.54
2019-03-30T07:42:58.020Z,20.38
2019-03-30T07:43:58.070Z,20.42
2019-03-30T07:44:58.031Z,20.36
2019-03-30T07:45:58.049Z,20.48
2019-03-30T07:46:58.041Z,20.5
2019-03-30T07:47:58.080Z,20.42
2019-03-30T07:48:58.148Z,20.5
2019-03-30T07:49:58.081Z,20.64
2019-03-30T07:50:58.062Z,20.61
2019-03-30T07:51:58.087Z,20.77
2019-03-30T07:52:58.058Z,20.8
2019-03-30T07:53:58.079Z,20.87
2019-03-30T07:54:58.072Z,20.92
2019-03-30T07:56:12.498Z,20.87
2019-03-30T07:57:19.521Z,20.82
2019-03-30T07:57:58.217Z,20.73
2019-03-30T07:58:58.086Z,20.69
2019-03-30T07:59:58.084Z,20.69
2019-03-30T08:00:58.114Z,20.61
2019-03-30T08:01:58.144Z,20.64
2019-03-30T08:02:58.126Z,20.61
2019-03-30T08:03:58.103Z,20.64
2019-03-30T08:04:58.129Z,20.52
2019-03-30T08:05:59.267Z,20.36
2019-03-30T08:06:58.139Z,20.31
2019-03-30T08:07:58.123Z,20.35
2019-03-30T08:08:58.145Z,20.33
2019-03-30T08:09:58.140Z,20.29
2019-03-30T08:10:58.128Z,20.29
2019-03-30T08:11:58.159Z,20.23
2019-03-30T08:12:58.197Z,20.18
2019-03-30T08:13:58.144Z,20.06
2019-03-30T08:14:58.129Z,20.2
2019-03-30T08:15:58.140Z,20.08
2019-03-30T08:16:58.163Z,19.99
2019-03-30T08:17:58.159Z,19.87
2019-03-30T08:18:58.250Z,19.84
2019-03-30T08:19:58.142Z,19.69
2019-03-30T08:20:58.175Z,19.51
2019-03-30T08:21:58.149Z,19.36
2019-03-30T08:22:58.182Z,19.28
2019-03-30T08:23:58.148Z,19.07
2019-03-30T08:24:58.178Z,19.02
2019-03-30T08:25:58.161Z,18.81
2019-03-30T08:26:58.182Z,18.55
2019-03-30T08:27:58.155Z,18.52
2019-03-30T08:28:58.160Z,18.39
2019-03-30T08:29:58.163Z,18.3
2019-03-30T08:30:58.177Z,18.2
2019-03-30T08:31:58.182Z,18.15
2019-03-30T08:32:58.145Z,17.9
2019-03-30T08:33:58.163Z,17.89
2019-03-30T08:34:58.170Z,17.7
2019-03-30T08:35:58.132Z,17.68
2019-03-30T08:37:01.681Z,17.63
2019-03-30T08:37:58.126Z,17.56
2019-03-30T08:38:58.157Z,17.49
2019-03-30T08:39:58.123Z,17.37
2019-03-30T08:40:58.154Z,17.37
2019-03-30T08:41:58.130Z,17.31
2019-03-30T08:42:58.151Z,17.36
2019-03-30T08:43:57.867Z,17.31
2019-03-30T08:44:58.113Z,17.3
2019-03-30T08:45:58.119Z,17.15
2019-03-30T08:46:58.137Z,17.15
2019-03-30T08:47:58.097Z,17.14
2019-03-30T08:48:58.120Z,17.04
2019-03-30T08:49:58.105Z,17.14
2019-03-30T08:50:58.115Z,17.11
2019-03-30T08:51:58.104Z,17
2019-03-30T08:52:58.109Z,17.01
2019-03-30T08:53:59.677Z,16.91
2019-03-30T08:54:58.101Z,16.93
2019-03-30T08:55:58.070Z,16.89
2019-03-30T08:56:58.095Z,16.82
2019-03-30T08:57:58.072Z,16.83
2019-03-30T08:58:58.083Z,16.85
2019-03-30T08:59:58.047Z,16.81
2019-03-30T09:00:58.074Z,16.81
2019-03-30T09:01:58.059Z,16.75
2019-03-30T09:02:58.040Z,16.7
2019-03-30T09:03:58.033Z,16.66
2019-03-30T09:04:58.055Z,16.66
2019-03-30T09:05:58.040Z,16.68
2019-03-30T09:06:58.048Z,16.58
2019-03-30T09:07:58.022Z,16.61
2019-03-30T09:08:58.057Z,16.56
2019-03-30T09:09:58.003Z,16.58
2019-03-30T09:10:58.032Z,16.56
2019-03-30T09:11:57.993Z,16.6
2019-03-30T09:12:58.019Z,16.6
2019-03-30T09:13:58.002Z,16.52
2019-03-30T09:14:58.032Z,16.56
2019-03-30T09:15:57.972Z,16.58
2019-03-30T09:16:57.989Z,16.53
2019-03-30T09:17:57.978Z,16.49
2019-03-30T09:18:57.990Z,16.52
2019-03-30T09:19:57.986Z,16.52
2019-03-30T09:20:57.954Z,16.58
2019-03-30T09:21:57.965Z,16.58
2019-03-30T09:22:57.955Z,16.56
2019-03-30T09:24:11.795Z,16.58
2019-03-30T09:24:57.943Z,16.57
2019-03-30T09:25:57.939Z,16.49
2019-03-30T09:26:57.953Z,16.56
2019-03-30T09:27:57.922Z,16.52
2019-03-30T09:28:57.952Z,16.56
2019-03-30T09:29:57.919Z,16.56
2019-03-30T09:30:57.937Z,16.7
2019-03-30T09:31:57.931Z,16.75
2019-03-30T09:32:57.905Z,16.78
2019-03-30T09:33:57.903Z,16.82
2019-03-30T09:34:57.918Z,16.79
2019-03-30T09:35:57.909Z,16.93
2019-03-30T09:36:58.245Z,16.96
2019-03-30T09:37:57.888Z,16.97
2019-03-30T09:38:57.865Z,16.91
2019-03-30T09:39:57.889Z,16.98
2019-03-30T09:40:57.862Z,17.04
2019-03-30T09:41:57.659Z,17.06
2019-03-30T09:42:57.844Z,17.08
2019-03-30T09:43:57.873Z,17.14
2019-03-30T09:44:57.835Z,17.19
2019-03-30T09:45:57.848Z,17.16
2019-03-30T09:46:57.837Z,17.19
2019-03-30T09:47:57.862Z,17.21
2019-03-30T09:48:57.850Z,17.3
2019-03-30T09:49:57.828Z,17.26
2019-03-30T09:50:57.810Z,17.36
2019-03-30T09:51:57.843Z,17.3
2019-03-30T09:52:57.903Z,17.4
2019-03-30T09:53:57.815Z,17.4
2019-03-30T09:54:57.791Z,17.44
2019-03-30T09:55:57.823Z,17.41
2019-03-30T09:56:57.791Z,17.49
2019-03-30T09:57:57.821Z,17.51
2019-03-30T09:58:57.771Z,17.55
2019-03-30T09:59:57.801Z,17.54
2019-03-30T10:00:57.759Z,17.55
2019-03-30T10:01:57.807Z,17.55
2019-03-30T10:02:57.776Z,17.58
2019-03-30T10:03:57.797Z,17.52
2019-03-30T10:04:57.779Z,17.49
2019-03-30T10:05:57.765Z,17.54
2019-03-30T10:06:57.760Z,17.44
2019-03-30T10:07:57.734Z,17.43
2019-03-30T10:08:57.758Z,17.48
2019-03-30T10:09:57.744Z,17.56
2019-03-30T10:10:57.752Z,17.58
2019-03-30T10:11:57.716Z,17.64
2019-03-30T10:12:57.749Z,17.64
2019-03-30T10:13:57.706Z,17.71
2019-03-30T10:14:57.733Z,17.63
2019-03-30T10:15:57.697Z,17.77
2019-03-30T10:16:57.723Z,17.68
2019-03-30T10:17:57.709Z,17.79
2019-03-30T10:18:57.692Z,17.81
2019-03-30T10:20:08.954Z,17.9
2019-03-30T10:20:57.709Z,17.84
2019-03-30T10:21:57.696Z,17.82
2019-03-30T10:22:57.663Z,17.97
2019-03-30T10:23:57.670Z,17.79
2019-03-30T10:25:00.800Z,17.86
2019-03-30T10:25:57.701Z,17.9
2019-03-30T10:26:57.688Z,17.9
2019-03-30T10:27:57.644Z,17.89
2019-03-30T10:28:57.670Z,17.86
2019-03-30T10:29:57.657Z,17.92
2019-03-30T10:30:57.940Z,18.03
2019-03-30T10:31:59.855Z,17.99
2019-03-30T10:32:57.625Z,18.08
2019-03-30T10:33:57.643Z,18.15
2019-03-30T10:34:57.615Z,18.14
2019-03-30T10:35:57.654Z,18.1
2019-03-30T10:36:57.640Z,18.18
2019-03-30T10:37:57.623Z,18.11
2019-03-30T10:38:57.598Z,18.07
2019-03-30T10:39:57.597Z,18.15
2019-03-30T10:40:57.625Z,18.1
2019-03-30T10:41:57.360Z,18.15
2019-03-30T10:42:57.581Z,18.08
2019-03-30T10:43:57.617Z,18.07
2019-03-30T10:44:57.575Z,18.08
2019-03-30T10:45:57.603Z,18.11
2019-03-30T10:46:57.564Z,18.11
2019-03-30T10:47:57.600Z,18.14
2019-03-30T10:48:57.554Z,18.17
2019-03-30T10:49:57.575Z,18.26
2019-03-30T10:50:57.544Z,18.08
2019-03-30T10:51:59.307Z,18.12
2019-03-30T10:52:57.564Z,18.17
2019-03-30T10:53:57.550Z,18.11
2019-03-30T10:54:58.116Z,18.08
2019-03-30T10:55:57.521Z,18.25
2019-03-30T10:56:57.553Z,18.21
2019-03-30T10:58:00.983Z,18.29
2019-03-30T10:58:57.542Z,18.27
2019-03-30T10:59:57.507Z,18.21
2019-03-30T11:00:57.529Z,18.27
2019-03-30T11:01:57.496Z,18.2
2019-03-30T11:02:57.524Z,18.2
2019-03-30T11:03:57.540Z,18.27
2019-03-30T11:04:57.525Z,18.23
2019-03-30T11:05:57.495Z,18.26
2019-03-30T11:06:57.506Z,18.14
2019-03-30T11:07:57.473Z,18.3
2019-03-30T11:08:57.492Z,18.23
2019-03-30T11:09:57.478Z,18.21
2019-03-30T11:10:57.458Z,18.12
2019-03-30T11:11:57.456Z,18.27
2019-03-30T11:12:57.475Z,18.18
2019-03-30T11:13:57.464Z,18.21
2019-03-30T11:14:57.471Z,18.23
2019-03-30T11:15:57.442Z,18.2
2019-03-30T11:16:57.491Z,18.25
2019-03-30T11:17:57.427Z,18.27
2019-03-30T11:18:57.455Z,18.15
2019-03-30T11:19:57.522Z,18.17
2019-03-30T11:20:57.444Z,18.3
2019-03-30T11:21:57.421Z,18.32
2019-03-30T11:22:57.436Z,18.18
2019-03-30T11:23:57.449Z,18.26
2019-03-30T11:25:11.637Z,18.17
2019-03-30T11:25:57.405Z,18.2
2019-03-30T11:26:57.418Z,18.17
2019-03-30T11:27:57.418Z,18.18
2019-03-30T11:28:57.389Z,18.1
2019-03-30T11:29:57.386Z,18.2
2019-03-30T11:30:57.371Z,18.18
2019-03-30T11:31:57.423Z,18.26
2019-03-30T11:32:57.367Z,18.17
2019-03-30T11:33:57.144Z,18.25
2019-03-30T11:34:57.386Z,18.03
2019-03-30T11:35:57.353Z,18.18
2019-03-30T11:36:57.374Z,18.15
2019-03-30T11:37:57.349Z,18.03
2019-03-30T11:38:57.362Z,18.05
2019-03-30T11:39:57.329Z,18.05
2019-03-30T11:40:57.325Z,17.96
2019-03-30T11:41:57.335Z,18.02
2019-03-30T11:42:57.347Z,18.17
2019-03-30T11:43:57.345Z,18.11
2019-03-30T11:44:57.318Z,18.05
2019-03-30T11:45:57.311Z,18.17
2019-03-30T11:46:57.297Z,18.1
2019-03-30T11:47:57.326Z,18.1
2019-03-30T11:48:57.699Z,18.1
2019-03-30T11:49:57.325Z,18.12
2019-03-30T11:50:57.277Z,18.11
2019-03-30T11:51:57.317Z,18.18
2019-03-30T11:52:57.267Z,18.08
2019-03-30T11:53:57.279Z,18.12
2019-03-30T11:54:57.257Z,18.08
2019-03-30T11:55:57.287Z,18.02
2019-03-30T11:56:57.275Z,18.1
2019-03-30T11:57:57.260Z,18.15
2019-03-30T11:58:57.238Z,18.02
2019-03-30T11:59:57.266Z,18.15
2019-03-30T12:00:57.238Z,18
2019-03-30T12:01:57.247Z,17.99
2019-03-30T12:02:57.227Z,17.93
2019-03-30T12:03:57.256Z,17.93
2019-03-30T12:04:57.215Z,17.84
2019-03-30T12:05:57.239Z,17.95
2019-03-30T12:06:57.225Z,17.92
2019-03-30T12:07:57.234Z,18.02
2019-03-30T12:08:57.196Z,18
2019-03-30T12:09:57.210Z,18
2019-03-30T12:10:56.939Z,17.99
2019-03-30T12:11:57.230Z,18.02
2019-03-30T12:12:57.183Z,18.03
2019-03-30T12:13:57.187Z,18.08
2019-03-30T12:14:57.195Z,18.02
2019-03-30T12:15:57.192Z,18.14
2019-03-30T12:16:57.165Z,18.08
2019-03-30T12:17:57.237Z,18.17
2019-03-30T12:18:57.161Z,18.11
2019-03-30T12:19:57.176Z,18.08
2019-03-30T12:20:57.144Z,18.14
2019-03-30T12:21:57.162Z,18.14
2019-03-30T12:22:57.143Z,18.07
2019-03-30T12:23:57.155Z,18.14
2019-03-30T12:24:57.130Z,18.05
2019-03-30T12:25:57.128Z,18.11
2019-03-30T12:27:00.208Z,18.15
2019-03-30T12:27:57.108Z,18.2
2019-03-30T12:28:57.105Z,18.26
2019-03-30T12:29:57.192Z,18.1
2019-03-30T12:30:57.121Z,18.08
2019-03-30T12:31:57.117Z,18.17
2019-03-30T12:32:57.095Z,18.18
2019-03-30T12:33:57.088Z,18.2
2019-03-30T12:34:57.077Z,18.27
2019-03-30T12:35:57.099Z,18.21
2019-03-30T12:37:00.481Z,18.26
2019-03-30T12:37:57.125Z,18.23
2019-03-30T12:38:57.066Z,18.26
2019-03-30T12:40:00.614Z,18.25
2019-03-30T12:40:57.043Z,18.12
2019-03-30T12:41:57.058Z,18.25
2019-03-30T12:42:57.049Z,18.2
2019-03-30T12:43:57.070Z,18.29
2019-03-30T12:44:57.053Z,18.29
2019-03-30T12:45:57.038Z,18.26
2019-03-30T12:46:57.019Z,18.26
2019-03-30T12:47:57.020Z,18.2
2019-03-30T12:48:57.043Z,18.25
2019-03-30T12:49:57.018Z,18.23
2019-03-30T12:50:56.998Z,18.21
2019-03-30T12:51:56.777Z,18.26
2019-03-30T12:52:57.000Z,18.21
2019-03-30T12:53:57.039Z,18.3
2019-03-30T12:54:56.981Z,18.26
2019-03-30T12:55:57.008Z,18.25
2019-03-30T12:56:56.968Z,18.2
2019-03-30T12:57:56.988Z,18.21
2019-03-30T12:58:56.963Z,18.26
2019-03-30T12:59:59.207Z,18.23
2019-03-30T13:00:56.979Z,18.36
2019-03-30T13:01:56.968Z,18.32
2019-03-30T13:02:57.027Z,18.3
2019-03-30T13:03:56.937Z,18.32
2019-03-30T13:04:56.960Z,18.37
2019-03-30T13:05:56.948Z,18.3
2019-03-30T13:06:56.952Z,18.35
2019-03-30T13:07:56.918Z,18.33
2019-03-30T13:08:57.037Z,18.35
2019-03-30T13:09:56.912Z,18.3
2019-03-30T13:10:56.953Z,18.47
2019-03-30T13:11:56.908Z,18.36
2019-03-30T13:12:56.927Z,18.48
2019-03-30T13:13:56.902Z,18.32
2019-03-30T13:14:56.916Z,18.32
2019-03-30T13:15:56.881Z,18.32
2019-03-30T13:16:56.917Z,18.35
2019-03-30T13:17:56.903Z,18.44
2019-03-30T13:18:56.865Z,18.32
2019-03-30T13:19:56.865Z,18.35
2019-03-30T13:20:56.885Z,18.45
2019-03-30T13:21:57.946Z,18.44
2019-03-30T13:22:56.883Z,18.36
2019-03-30T13:23:56.842Z,18.44
2019-03-30T13:24:56.865Z,18.41
2019-03-30T13:26:07.716Z,18.42
2019-03-30T13:26:56.860Z,18.44
2019-03-30T13:27:58.237Z,18.39
2019-03-30T13:28:56.857Z,18.42
2019-03-30T13:29:56.835Z,18.39
2019-03-30T13:30:56.856Z,18.44
2019-03-30T13:31:56.817Z,18.48
2019-03-30T13:32:58.344Z,18.42
2019-03-30T13:33:56.812Z,18.41
2019-03-30T13:34:56.827Z,18.42
2019-03-30T13:35:56.826Z,18.48